Time;durP1;ratioP1;P1;durP2;ratioP2;P2;SDS_P1;SDS_P2;PMS_P1;PMS_P2;Temp;Humidity;BMP_temperature;BMP_pressure;BME280_temperature;BME280_humidity;BME280_pressure;Samples;Min_cycle;Max_cycle;Signal;HPM_P1;HPM_P2
2022/04/06 00:00:40;;;;;;;11.95;9.40;;;4.90;99.90;;;;;;4993192;28;20034;-53
2022/04/06 00:03:05;;;;;;;12.73;9.55;;;4.90;99.90;;;;;;4992804;28;20034;-52
2022/04/06 00:05:31;;;;;;;13.02;9.15;;;4.90;99.90;;;;;;4992990;28;20034;-54
2022/04/06 00:07:57;;;;;;;11.30;8.57;;;4.90;99.90;;;;;;4992938;28;20034;-53
2022/04/06 00:10:22;;;;;;;15.48;10.68;;;4.90;99.90;;;;;;4992533;28;20070;-53
2022/04/06 00:12:48;;;;;;;12.40;9.02;;;4.90;99.90;;;;;;4992623;28;20054;-56
2022/04/06 00:15:13;;;;;;;12.30;9.25;;;5.00;99.90;;;;;;4992833;28;20027;-51
2022/04/06 00:17:40;;;;;;;12.65;10.13;;;5.00;99.90;;;;;;4992924;28;20484;-54
2022/04/06 00:20:07;;;;;;;12.13;9.45;;;5.00;99.90;;;;;;4993165;28;20031;-52
2022/04/06 00:22:33;;;;;;;12.32;9.82;;;5.00;99.90;;;;;;4992315;28;20105;-56
2022/04/06 00:24:59;;;;;;;12.45;9.90;;;5.00;99.90;;;;;;4992729;28;20444;-55
2022/04/06 00:27:25;;;;;;;14.63;10.40;;;5.00;99.90;;;;;;4992539;28;20088;-53
2022/04/06 00:29:51;;;;;;;14.98;10.95;;;5.00;99.90;;;;;;4993057;28;20030;-52
2022/04/06 00:32:16;;;;;;;15.55;10.98;;;5.10;99.90;;;;;;4992589;28;20030;-50
2022/04/06 00:37:26;;;;;;;14.77;10.45;;;5.30;99.90;;;;;;4985330;28;20113;-55
2022/04/06 00:39:51;;;;;;;13.23;8.27;;;5.50;99.90;;;;;;4998566;28;20112;-57
2022/04/06 00:42:18;;;;;;;11.50;7.97;;;5.60;99.90;;;;;;4997562;28;20034;-55
2022/04/06 00:44:44;;;;;;;9.52;7.40;;;5.80;99.90;;;;;;4992495;28;20096;-55
2022/04/06 00:47:10;;;;;;;11.07;7.63;;;6.10;99.90;;;;;;4992632;28;20069;-55
2022/04/06 00:49:36;;;;;;;9.05;6.85;;;6.10;99.90;;;;;;4992183;28;20061;-51
2022/04/06 00:52:06;;;;;;;9.32;6.15;;;6.30;99.90;;;;;;4992079;28;20466;-53
2022/04/06 00:54:34;;;;;;;11.93;6.38;;;6.50;99.90;;;;;;4991891;28;20038;-52
2022/04/06 00:57:00;;;;;;;7.95;5.68;;;6.70;99.90;;;;;;4991763;28;20030;-54
2022/04/06 00:59:28;;;;;;;8.35;6.13;;;6.80;99.90;;;;;;4990226;28;20084;-53
2022/04/06 01:01:55;;;;;;;8.05;5.97;;;6.90;99.90;;;;;;4990127;28;20477;-54
2022/04/06 01:04:21;;;;;;;6.82;5.57;;;7.00;99.90;;;;;;4990417;28;20038;-56
2022/04/06 01:06:51;;;;;;;8.93;5.55;;;7.10;99.90;;;;;;4992202;28;20434;-56
2022/04/06 01:09:18;;;;;;;8.45;5.82;;;7.10;99.90;;;;;;4992302;28;20093;-53
2022/04/06 01:11:49;;;;;;;7.85;5.28;;;7.10;99.90;;;;;;4992421;28;20114;-55
2022/04/06 01:14:14;;;;;;;8.45;5.70;;;7.20;99.90;;;;;;4990799;28;20034;-53
2022/04/06 01:16:41;;;;;;;8.75;5.25;;;7.20;99.90;;;;;;4992119;28;20073;-55
2022/04/06 01:19:07;;;;;;;6.38;4.93;;;7.20;99.90;;;;;;4991685;28;20041;-56
2022/04/06 01:21:33;;;;;;;6.97;5.03;;;7.30;99.90;;;;;;4991549;28;20114;-55
2022/04/06 01:23:59;;;;;;;8.38;5.15;;;7.30;99.90;;;;;;4990003;28;20117;-57
2022/04/06 01:26:25;;;;;;;6.22;5.20;;;7.20;99.90;;;;;;4991614;28;20037;-52
2022/04/06 01:28:51;;;;;;;6.10;4.93;;;7.20;99.90;;;;;;4991751;28;20038;-57
2022/04/06 01:31:17;;;;;;;7.07;5.00;;;7.30;99.90;;;;;;4991747;28;20049;-55
2022/04/06 01:33:42;;;;;;;7.30;5.43;;;7.30;99.90;;;;;;4991306;28;20038;-51
2022/04/06 01:36:08;;;;;;;7.18;5.85;;;7.30;99.90;;;;;;4991325;28;20022;-55
2022/04/06 01:38:34;;;;;;;8.63;6.03;;;7.30;99.90;;;;;;4991437;28;20034;-55
2022/04/06 01:41:00;;;;;;;6.72;5.60;;;7.30;99.90;;;;;;5000133;28;20038;-52
2022/04/06 01:43:26;;;;;;;10.73;6.35;;;7.30;99.90;;;;;;4991191;28;20037;-56
2022/04/06 01:45:51;;;;;;;8.52;6.05;;;7.30;99.90;;;;;;4991551;28;20526;-54
2022/04/06 01:48:18;;;;;;;9.57;5.95;;;7.30;99.90;;;;;;4990157;28;20129;-55
2022/04/06 01:53:29;;;;;;;9.18;6.35;;;7.30;99.90;;;;;;4990918;28;20049;-51
2022/04/06 01:55:55;;;;;;;7.65;5.93;;;7.30;99.90;;;;;;4990650;28;20046;-55
2022/04/06 01:58:22;;;;;;;8.35;6.10;;;7.40;99.90;;;;;;4991108;28;20081;-56
2022/04/06 02:00:48;;;;;;;7.50;6.18;;;7.40;99.90;;;;;;4991022;28;20033;-52
2022/04/06 02:03:13;;;;;;;8.85;6.70;;;7.40;99.90;;;;;;4990657;28;20030;-55
2022/04/06 02:05:39;;;;;;;8.60;6.40;;;7.40;99.90;;;;;;4990983;28;20539;-56
2022/04/06 02:08:05;;;;;;;7.82;5.93;;;7.40;99.90;;;;;;4991164;28;20409;-53
2022/04/06 02:10:31;;;;;;;7.60;5.90;;;7.40;99.90;;;;;;4991134;28;20045;-52
2022/04/06 02:12:58;;;;;;;6.55;5.65;;;7.40;99.90;;;;;;4990835;28;20481;-54
2022/04/06 02:15:24;;;;;;;7.63;4.80;;;7.40;99.90;;;;;;4990814;28;20026;-53
2022/04/06 02:17:50;;;;;;;6.32;5.13;;;7.40;99.90;;;;;;4990439;28;20183;-52
2022/04/06 02:20:16;;;;;;;7.90;4.93;;;7.50;99.90;;;;;;4990612;28;20093;-53
2022/04/06 02:22:43;;;;;;;6.45;4.93;;;7.40;99.90;;;;;;4990250;28;20034;-53
2022/04/06 02:25:09;;;;;;;8.07;4.63;;;7.40;99.90;;;;;;4997399;28;20077;-53
2022/04/06 02:27:44;;;;;;;6.95;4.95;;;7.50;99.90;;;;;;4990824;28;20041;-54
2022/04/06 02:30:10;;;;;;;5.78;5.18;;;7.40;99.90;;;;;;4991012;28;20073;-55
2022/04/06 02:32:36;;;;;;;8.30;4.95;;;7.40;99.90;;;;;;4989056;28;20062;-52
2022/04/06 02:35:01;;;;;;;5.50;4.45;;;7.40;99.90;;;;;;4977359;28;20108;-56
2022/04/06 02:37:27;;;;;;;6.95;5.03;;;7.40;99.90;;;;;;4990642;28;20503;-54
2022/04/06 02:39:52;;;;;;;5.22;4.72;;;7.40;99.90;;;;;;4990252;28;20083;-56
2022/04/06 02:42:18;;;;;;;6.65;5.20;;;7.40;99.90;;;;;;4990251;28;20034;-54
2022/04/06 02:44:43;;;;;;;11.20;5.28;;;7.50;99.90;;;;;;4990372;28;20037;-55
2022/04/06 02:47:09;;;;;;;5.40;4.53;;;7.40;99.90;;;;;;4990505;28;20031;-54
2022/04/06 02:49:34;;;;;;;6.20;5.00;;;7.50;99.90;;;;;;4989984;28;20505;-55
2022/04/06 02:52:00;;;;;;;6.35;5.13;;;7.40;99.90;;;;;;4971309;28;20049;-52
2022/04/06 02:54:26;;;;;;;8.07;5.07;;;7.40;99.90;;;;;;4988154;28;20093;-54
2022/04/06 02:56:51;;;;;;;7.40;5.03;;;7.40;99.90;;;;;;4988581;28;20038;-57
2022/04/06 02:59:17;;;;;;;7.65;6.32;;;7.50;99.90;;;;;;4990076;28;20071;-52
2022/04/06 03:01:42;;;;;;;6.03;4.97;;;7.40;99.90;;;;;;4990441;28;20026;-56
2022/04/06 03:04:08;;;;;;;9.52;5.18;;;7.50;99.90;;;;;;4989604;28;20521;-54
2022/04/06 03:06:33;;;;;;;8.75;5.15;;;7.50;99.90;;;;;;4990313;28;20028;-55
2022/04/06 03:08:59;;;;;;;7.82;5.55;;;7.40;99.90;;;;;;4990448;28;20042;-56
2022/04/06 03:11:25;;;;;;;9.15;6.25;;;7.40;99.90;;;;;;4990178;28;20432;-54
2022/04/06 03:13:51;;;;;;;7.78;5.60;;;7.40;99.90;;;;;;4989535;28;20105;-52
2022/04/06 03:16:17;;;;;;;7.28;5.63;;;7.40;99.90;;;;;;4989961;28;20026;-55
2022/04/06 03:18:42;;;;;;;6.82;6.00;;;7.40;99.90;;;;;;4989778;28;20088;-52
2022/04/06 03:21:08;;;;;;;8.02;5.40;;;7.50;99.90;;;;;;4990175;28;20485;-55
2022/04/06 03:23:33;;;;;;;10.52;6.05;;;7.40;99.90;;;;;;4989738;28;20058;-53
2022/04/06 03:25:59;;;;;;;6.57;5.63;;;7.40;99.90;;;;;;4989749;28;20046;-54
2022/04/06 03:28:24;;;;;;;8.15;5.80;;;7.50;99.90;;;;;;4988521;28;20027;-53
2022/04/06 03:30:50;;;;;;;7.60;5.65;;;7.40;99.90;;;;;;4990026;28;20118;-51
2022/04/06 03:33:16;;;;;;;10.93;6.32;;;7.50;99.90;;;;;;4988328;28;20109;-57
2022/04/06 03:35:41;;;;;;;9.07;6.28;;;7.50;99.90;;;;;;4988312;28;20022;-54
2022/04/06 03:38:07;;;;;;;9.65;7.00;;;7.50;99.90;;;;;;4989987;28;20408;-52
2022/04/06 03:40:32;;;;;;;11.55;7.70;;;7.50;99.90;;;;;;4988731;28;20114;-54
2022/04/06 03:42:58;;;;;;;12.55;8.05;;;7.50;99.90;;;;;;4989743;28;20030;-52
2022/04/06 03:45:24;;;;;;;11.55;7.75;;;7.50;99.90;;;;;;4990137;28;20445;-53
2022/04/06 03:47:49;;;;;;;9.82;7.53;;;7.50;99.90;;;;;;4989882;28;20041;-55
2022/04/06 03:50:15;;;;;;;12.55;7.95;;;7.50;99.90;;;;;;4989712;28;20378;-53
2022/04/06 03:52:41;;;;;;;12.80;7.95;;;7.50;99.90;;;;;;4989729;28;20026;-54
2022/04/06 03:55:08;;;;;;;14.45;8.88;;;7.50;99.90;;;;;;4989526;28;20115;-53
2022/04/06 03:57:37;;;;;;;16.83;8.85;;;7.50;99.90;;;;;;4989178;28;20034;-53
2022/04/06 04:00:06;;;;;;;13.30;9.43;;;7.50;99.90;;;;;;4989537;28;20038;-52
2022/04/06 04:02:32;;;;;;;11.98;8.85;;;7.50;99.90;;;;;;4987712;28;20069;-55
2022/04/06 04:04:57;;;;;;;11.65;8.70;;;7.50;99.90;;;;;;4989506;28;20125;-54
2022/04/06 04:07:23;;;;;;;14.23;8.75;;;7.50;99.90;;;;;;4989584;28;20646;-51
2022/04/06 04:09:50;;;;;;;12.32;9.15;;;7.50;99.90;;;;;;4989373;28;20404;-56
2022/04/06 04:12:16;;;;;;;11.18;8.07;;;7.50;99.90;;;;;;4988990;28;20022;-51
2022/04/06 04:14:43;;;;;;;13.07;8.68;;;7.50;99.90;;;;;;4989292;28;20158;-52
2022/04/06 04:17:09;;;;;;;12.65;9.48;;;7.50;99.90;;;;;;4992969;28;20540;-54
2022/04/06 04:19:35;;;;;;;15.30;9.95;;;7.50;99.90;;;;;;4993027;28;20114;-56
2022/04/06 04:22:00;;;;;;;17.65;10.45;;;7.50;99.90;;;;;;4992941;28;20559;-50
2022/04/06 04:24:26;;;;;;;14.35;9.20;;;7.50;99.90;;;;;;4991497;28;20026;-51
2022/04/06 04:26:51;;;;;;;15.32;10.50;;;7.50;99.90;;;;;;4993068;28;20117;-53
2022/04/06 04:29:17;;;;;;;15.63;10.35;;;7.50;99.90;;;;;;4992155;28;20078;-54
2022/04/06 04:31:44;;;;;;;16.80;10.65;;;7.50;99.90;;;;;;4992506;28;20042;-55
2022/04/06 04:34:09;;;;;;;18.45;11.55;;;7.50;99.90;;;;;;4992548;28;20023;-50
2022/04/06 04:36:35;;;;;;;18.70;12.30;;;7.50;99.90;;;;;;4992755;28;20106;-54
2022/04/06 04:39:01;;;;;;;19.67;12.07;;;7.50;99.90;;;;;;4992519;28;20132;-55
2022/04/06 04:41:27;;;;;;;19.63;11.88;;;7.50;99.90;;;;;;4991503;28;20049;-57
2022/04/06 04:43:52;;;;;;;18.13;11.82;;;7.50;99.90;;;;;;4992475;28;20038;-57
2022/04/06 04:46:18;;;;;;;17.88;12.20;;;7.60;99.90;;;;;;4992385;28;20027;-57
2022/04/06 04:48:45;;;;;;;19.45;13.05;;;7.50;99.90;;;;;;4992235;28;20104;-54
2022/04/06 04:51:11;;;;;;;20.15;13.52;;;7.60;99.90;;;;;;4990978;28;20100;-55
2022/04/06 04:53:36;;;;;;;23.00;13.57;;;7.60;99.90;;;;;;4992292;28;20030;-56
2022/04/06 04:56:02;;;;;;;21.35;14.30;;;7.50;99.90;;;;;;4992075;28;20657;-55
2022/04/06 04:58:27;;;;;;;24.73;16.13;;;7.60;99.90;;;;;;4992387;28;20031;-53
2022/04/06 05:00:54;;;;;;;24.05;15.98;;;7.60;99.90;;;;;;4992387;28;20050;-55
2022/04/06 05:03:20;;;;;;;23.15;16.42;;;7.60;99.90;;;;;;4992040;28;20026;-56
2022/04/06 05:05:49;;;;;;;26.83;16.35;;;7.60;99.90;;;;;;4992172;28;20026;-51
2022/04/06 05:08:15;;;;;;;28.00;18.48;;;7.60;99.90;;;;;;4992120;28;20034;-54
2022/04/06 05:10:41;;;;;;;28.08;16.00;;;7.60;99.90;;;;;;4992060;28;20045;-56
2022/04/06 05:13:06;;;;;;;28.33;19.08;;;7.60;99.90;;;;;;4991916;28;20069;-55
2022/04/06 05:15:32;;;;;;;32.95;19.73;;;7.60;99.90;;;;;;4992072;28;20072;-56
2022/04/06 05:17:57;;;;;;;25.83;17.70;;;7.60;99.90;;;;;;4992033;28;20026;-56
2022/04/06 05:20:23;;;;;;;31.98;19.65;;;7.60;99.90;;;;;;4991628;28;20043;-54
2022/04/06 05:22:48;;;;;;;33.50;20.60;;;7.60;99.90;;;;;;4991566;28;20030;-55
2022/04/06 05:25:14;;;;;;;27.83;18.75;;;7.70;99.90;;;;;;4991858;28;20050;-51
2022/04/06 05:27:51;;;;;;;31.73;20.50;;;7.70;99.90;;;;;;4990554;28;20042;-54
2022/04/06 05:30:18;;;;;;;33.03;20.42;;;7.70;99.90;;;;;;4991656;28;20034;-56
2022/04/06 05:32:46;;;;;;;27.58;21.85;;;7.70;99.90;;;;;;4991373;28;20109;-55
2022/04/06 05:35:12;;;;;;;30.58;19.38;;;7.70;99.90;;;;;;4991655;28;20044;-55
2022/04/06 05:37:42;;;;;;;39.35;21.83;;;7.80;99.90;;;;;;4991691;28;20041;-52
2022/04/06 05:40:09;;;;;;;36.55;23.13;;;7.80;99.90;;;;;;4991755;28;20034;-52
2022/04/06 05:42:35;;;;;;;34.42;20.67;;;7.80;99.90;;;;;;4990206;28;20023;-56
2022/04/06 05:45:01;;;;;;;32.15;21.73;;;7.80;99.90;;;;;;4991327;28;20426;-56
2022/04/06 05:47:27;;;;;;;36.78;23.08;;;7.80;99.90;;;;;;4991476;28;20049;-54
2022/04/06 05:49:52;;;;;;;36.40;21.88;;;7.80;99.90;;;;;;4991030;28;20432;-56
2022/04/06 05:52:18;;;;;;;31.77;20.20;;;7.80;99.90;;;;;;4991527;28;20065;-52
2022/04/06 05:54:44;;;;;;;28.23;19.83;;;7.80;99.90;;;;;;4991079;28;20037;-51
2022/04/06 05:57:09;;;;;;;31.25;20.35;;;7.90;99.90;;;;;;4991384;28;20109;-52
2022/04/06 05:59:36;;;;;;;34.28;20.05;;;7.90;99.90;;;;;;4990558;28;20404;-56
2022/04/06 06:02:03;;;;;;;34.10;21.52;;;7.90;99.90;;;;;;4991261;28;20037;-53
2022/04/06 06:04:29;;;;;;;28.95;18.45;;;7.90;99.90;;;;;;4989534;28;20038;-51
2022/04/06 06:06:54;;;;;;;29.13;18.90;;;7.90;99.90;;;;;;4991055;28;20030;-54
2022/04/06 06:09:20;;;;;;;24.05;16.50;;;7.90;99.90;;;;;;4991041;28;20035;-52
2022/04/06 06:11:45;;;;;;;21.45;16.98;;;8.00;99.90;;;;;;4991115;28;20030;-52
2022/04/06 06:14:11;;;;;;;23.58;16.23;;;8.00;99.90;;;;;;4990987;28;20038;-53
2022/04/06 06:16:36;;;;;;;30.00;16.17;;;8.00;99.90;;;;;;4991144;28;20037;-52
2022/04/06 06:19:02;;;;;;;24.55;15.70;;;8.00;99.90;;;;;;4991010;28;20049;-53
2022/04/06 06:21:31;;;;;;;24.60;15.43;;;8.10;99.90;;;;;;4990824;28;20073;-53
2022/04/06 06:24:00;;;;;;;24.90;14.50;;;8.10;99.90;;;;;;4990650;28;20485;-55
2022/04/06 06:26:26;;;;;;;20.90;13.20;;;8.10;99.90;;;;;;4990702;28;20062;-54
2022/04/06 06:28:51;;;;;;;23.20;14.98;;;8.10;99.90;;;;;;4990572;28;20069;-52
2022/04/06 06:31:17;;;;;;;21.45;12.50;;;8.10;99.90;;;;;;4990465;28;20038;-52
2022/04/06 06:33:42;;;;;;;23.42;13.60;;;8.10;99.90;;;;;;4989605;28;20030;-54
2022/04/06 06:36:08;;;;;;;19.25;12.82;;;8.10;99.90;;;;;;4990555;28;20038;-53
2022/04/06 06:38:34;;;;;;;24.80;12.38;;;8.10;99.90;;;;;;4990343;28;20030;-55
2022/04/06 06:40:59;;;;;;;23.77;12.85;;;8.10;99.90;;;;;;4991197;28;20030;-54
2022/04/06 06:43:25;;;;;;;23.77;12.75;;;8.10;99.90;;;;;;4990400;28;20110;-53
2022/04/06 06:45:50;;;;;;;24.48;12.50;;;8.10;99.90;;;;;;4990396;28;20457;-54
2022/04/06 06:48:16;;;;;;;17.45;11.40;;;8.10;99.90;;;;;;4990577;28;20026;-54
2022/04/06 06:50:41;;;;;;;18.15;11.15;;;8.10;99.90;;;;;;4990475;28;20176;-55
2022/04/06 06:53:07;;;;;;;20.00;10.90;;;8.20;99.90;;;;;;4990356;28;20374;-53
2022/04/06 06:55:32;;;;;;;17.77;10.35;;;8.20;99.90;;;;;;4990710;28;20063;-54
2022/04/06 06:57:58;;;;;;;19.35;10.57;;;8.30;99.90;;;;;;4989405;28;20026;-56
2022/04/06 07:00:23;;;;;;;24.33;11.70;;;8.30;99.90;;;;;;4990216;28;20030;-55
2022/04/06 07:02:49;;;;;;;22.50;11.27;;;8.30;99.90;;;;;;4990167;28;20034;-53
2022/04/06 07:05:14;;;;;;;23.73;11.60;;;8.40;99.90;;;;;;4989940;28;20034;-54
2022/04/06 07:07:57;;;;;;;19.10;11.32;;;8.40;99.90;;;;;;4990350;28;20029;-52
2022/04/06 07:10:25;;;;;;;17.33;11.30;;;8.50;99.90;;;;;;4990179;28;20073;-55
2022/04/06 07:12:52;;;;;;;25.48;12.20;;;8.50;99.90;;;;;;4989835;28;20026;-55
2022/04/06 07:15:18;;;;;;;18.90;11.63;;;8.50;99.90;;;;;;4989890;28;20030;-56
2022/04/06 07:17:44;;;;;;;20.73;10.75;;;8.50;99.90;;;;;;4990155;28;20018;-53
2022/04/06 07:20:10;;;;;;;22.60;11.35;;;8.50;99.90;;;;;;4989663;28;20134;-53
2022/04/06 07:22:36;;;;;;;18.45;11.38;;;8.60;99.90;;;;;;4989729;28;20020;-56
2022/04/06 07:25:03;;;;;;;24.83;12.90;;;8.60;99.90;;;;;;4990512;28;20022;-51
2022/04/06 07:27:38;;;;;;;18.45;11.05;;;8.60;99.90;;;;;;4989474;28;20042;-56
2022/04/06 07:30:06;;;;;;;24.25;12.00;;;8.60;99.90;;;;;;4990558;28;20073;-55
2022/04/06 07:32:32;;;;;;;19.27;11.10;;;8.60;99.90;;;;;;4989843;28;20039;-51
2022/04/06 07:34:58;;;;;;;22.42;11.85;;;8.60;99.90;;;;;;4989985;28;20064;-52
2022/04/06 07:37:24;;;;;;;18.38;12.00;;;8.60;99.90;;;;;;4989844;28;20116;-53
2022/04/06 07:39:49;;;;;;;19.13;11.52;;;8.60;99.90;;;;;;4988895;28;20031;-51
2022/04/06 07:42:15;;;;;;;15.88;11.35;;;8.60;99.90;;;;;;4990114;28;20035;-52
2022/04/06 07:44:40;;;;;;;19.70;12.35;;;8.60;99.90;;;;;;4989268;28;20077;-55
2022/04/06 07:47:06;;;;;;;19.70;11.90;;;8.70;99.90;;;;;;4989980;28;20034;-52
2022/04/06 07:49:31;;;;;;;19.58;11.43;;;8.70;99.90;;;;;;4990833;28;20038;-54
2022/04/06 07:51:57;;;;;;;21.90;12.32;;;8.70;99.90;;;;;;4993448;28;20057;-53
2022/04/06 07:54:23;;;;;;;20.10;12.73;;;8.70;99.90;;;;;;4993238;28;20102;-55
2022/04/06 07:56:48;;;;;;;20.15;11.68;;;8.70;99.90;;;;;;4993342;28;20081;-54
2022/04/06 07:59:14;;;;;;;18.92;12.73;;;8.70;99.90;;;;;;4993076;28;20042;-57
2022/04/06 08:01:40;;;;;;;19.98;11.93;;;8.70;99.90;;;;;;4993595;28;20034;-55
2022/04/06 08:04:05;;;;;;;19.60;12.20;;;8.70;99.90;;;;;;4992778;28;20030;-51
2022/04/06 08:06:31;;;;;;;14.27;11.95;;;8.70;99.90;;;;;;4993392;28;20030;-53
2022/04/06 08:08:56;;;;;;;19.00;12.27;;;8.60;99.90;;;;;;4991973;28;20042;-53
2022/04/06 08:11:22;;;;;;;21.85;11.70;;;8.70;99.90;;;;;;4993318;28;20608;-51
2022/04/06 08:13:48;;;;;;;20.52;13.10;;;8.70;99.90;;;;;;4992933;28;20042;-54
2022/04/06 08:16:14;;;;;;;17.83;12.35;;;8.70;99.90;;;;;;4993011;28;20053;-53
2022/04/06 08:18:40;;;;;;;23.42;12.38;;;8.80;99.90;;;;;;4993342;28;20495;-56
2022/04/06 08:21:06;;;;;;;16.25;12.07;;;8.80;99.90;;;;;;4993172;28;20034;-54
2022/04/06 08:23:32;;;;;;;18.55;10.98;;;8.80;99.90;;;;;;4993130;28;20121;-56
2022/04/06 08:25:58;;;;;;;21.60;12.57;;;8.80;99.90;;;;;;4991580;28;20031;-51
2022/04/06 08:28:24;;;;;;;18.50;12.10;;;8.80;99.90;;;;;;4991956;28;20512;-54
2022/04/06 08:30:49;;;;;;;17.10;12.02;;;8.90;99.90;;;;;;4992837;28;20042;-54
2022/04/06 08:33:15;;;;;;;19.10;11.40;;;8.80;99.90;;;;;;4991770;28;20034;-51
2022/04/06 08:35:42;;;;;;;16.48;10.88;;;8.80;99.90;;;;;;4989900;28;20030;-55
2022/04/06 08:38:15;;;;;;;13.93;10.43;;;8.90;99.90;;;;;;4985199;28;20070;-51
2022/04/06 08:40:44;;;;;;;18.48;10.85;;;8.90;99.90;;;;;;4973521;28;20039;-55
2022/04/06 08:43:11;;;;;;;18.98;11.32;;;8.90;99.90;;;;;;4991750;28;20120;-54
2022/04/06 08:45:38;;;;;;;18.88;11.55;;;8.90;99.90;;;;;;4992366;28;20501;-54
2022/04/06 08:48:09;;;;;;;14.13;11.45;;;8.90;99.90;;;;;;4992958;28;20073;-55
2022/04/06 08:50:36;;;;;;;15.80;10.77;;;9.00;99.90;;;;;;4992617;28;20042;-54
2022/04/06 08:53:05;;;;;;;14.02;10.20;;;8.90;99.90;;;;;;4992508;28;20101;-56
2022/04/06 08:55:32;;;;;;;18.38;11.52;;;9.00;99.90;;;;;;4991951;28;20054;-53
2022/04/06 08:57:59;;;;;;;17.83;11.75;;;8.90;99.90;;;;;;4992732;28;20030;-53
2022/04/06 09:00:26;;;;;;;20.00;11.98;;;8.90;99.90;;;;;;4991006;28;20489;-57
2022/04/06 09:02:52;;;;;;;15.93;11.18;;;9.00;99.90;;;;;;4990840;28;20093;-57
2022/04/06 09:05:22;;;;;;;14.30;10.57;;;8.90;99.90;;;;;;4991990;28;20113;-53
2022/04/06 09:07:51;;;;;;;16.65;12.50;;;8.90;99.90;;;;;;4992514;28;20563;-54
2022/04/06 09:10:27;;;;;;;15.45;10.65;;;8.90;99.90;;;;;;4992054;28;20117;-58
2022/04/06 09:13:18;;;;;;;18.05;11.90;;;8.90;99.90;;;;;;4991778;28;20515;-53
2022/04/06 09:15:44;;;;;;;18.30;11.95;;;8.80;99.90;;;;;;4992307;28;20445;-57
2022/04/06 09:18:10;;;;;;;17.05;11.25;;;8.90;99.90;;;;;;4991792;28;20489;-56
2022/04/06 09:20:35;;;;;;;16.08;12.20;;;8.90;99.90;;;;;;4991842;28;20113;-53
2022/04/06 09:23:02;;;;;;;20.38;11.50;;;8.90;99.90;;;;;;4990348;28;20101;-55
2022/04/06 09:25:36;;;;;;;18.77;11.20;;;8.90;99.90;;;;;;4992397;28;20022;-54
2022/04/06 09:28:09;;;;;;;15.85;10.32;;;8.90;99.90;;;;;;4990703;28;20066;-53
2022/04/06 09:30:38;;;;;;;13.50;10.20;;;8.80;99.90;;;;;;4992134;28;20053;-52
2022/04/06 09:33:11;;;;;;;13.38;11.05;;;8.90;99.90;;;;;;4991435;28;20085;-55
2022/04/06 09:35:37;;;;;;;15.98;10.30;;;8.90;99.90;;;;;;4991649;28;20022;-54
2022/04/06 09:38:23;;;;;;;13.57;10.27;;;8.80;99.90;;;;;;4991922;28;20374;-55
2022/04/06 09:41:09;;;;;;;13.38;9.40;;;8.80;99.90;;;;;;4991314;28;20027;-56
2022/04/06 09:43:35;;;;;;;17.60;10.77;;;8.80;99.90;;;;;;4991532;28;20030;-54
2022/04/06 09:49:20;;;;;;;15.70;10.90;;;8.80;99.90;;;;;;4965794;28;20113;-57
2022/04/06 09:51:50;;;;;;;14.70;10.65;;;8.80;99.90;;;;;;4991539;28;20168;-54
2022/04/06 09:54:16;;;;;;;14.25;10.40;;;8.80;99.90;;;;;;4991506;28;20496;-58
2022/04/06 09:56:43;;;;;;;14.48;10.10;;;8.90;99.90;;;;;;4991230;28;20154;-58
2022/04/06 09:59:11;;;;;;;14.48;10.15;;;8.80;99.90;;;;;;4991726;28;20033;-58
2022/04/06 10:01:45;;;;;;;12.82;9.73;;;8.80;99.90;;;;;;5002996;28;20027;-53
2022/04/06 10:04:12;;;;;;;13.82;9.05;;;8.80;99.90;;;;;;4987798;28;20517;-52
2022/04/06 10:06:40;;;;;;;14.30;9.02;;;8.80;99.90;;;;;;5000801;28;20109;-55
2022/04/06 10:09:08;;;;;;;17.23;10.95;;;8.80;99.90;;;;;;4991719;28;20026;-56
2022/04/06 10:11:38;;;;;;;13.40;8.88;;;8.80;99.90;;;;;;4990939;28;20021;-54
2022/04/06 10:14:06;;;;;;;13.85;9.07;;;8.70;99.90;;;;;;4990130;28;20041;-53
2022/04/06 10:16:34;;;;;;;11.35;8.60;;;8.80;99.90;;;;;;4990369;28;20026;-54
2022/04/06 10:19:02;;;;;;;15.02;9.48;;;8.80;99.90;;;;;;4990018;28;20394;-53
2022/04/06 10:21:39;;;;;;;10.63;8.05;;;8.90;99.90;;;;;;4990170;28;20030;-54
2022/04/06 10:24:28;;;;;;;11.55;8.00;;;8.80;99.90;;;;;;4990699;28;20581;-57
2022/04/06 10:27:09;;;;;;;11.20;6.97;;;8.90;99.90;;;;;;4990838;28;20038;-56
2022/04/06 10:30:18;;;;;;;7.05;5.75;;;8.80;99.90;;;;;;4990468;28;20062;-55
2022/04/06 10:32:48;;;;;;;10.95;6.90;;;8.90;99.90;;;;;;4985388;28;20043;-54
2022/04/06 10:35:30;;;;;;;10.23;7.07;;;8.90;99.90;;;;;;4990707;28;20027;-53
2022/04/06 10:37:56;;;;;;;8.30;6.07;;;8.90;99.90;;;;;;4990740;28;20034;-56
2022/04/06 10:40:22;;;;;;;12.35;7.03;;;8.90;99.90;;;;;;4990721;28;20551;-53
2022/04/06 10:42:49;;;;;;;8.05;5.65;;;8.90;99.90;;;;;;4990537;28;20042;-56
2022/04/06 10:45:24;;;;;;;8.95;5.97;;;8.90;99.90;;;;;;4991079;28;20027;-55
2022/04/06 10:48:12;;;;;;;6.78;5.90;;;8.90;99.90;;;;;;4990432;28;20110;-53
2022/04/06 10:50:38;;;;;;;8.90;6.43;;;8.90;99.90;;;;;;4990608;28;20085;-57
2022/04/06 10:53:32;;;;;;;9.55;6.07;;;8.90;99.90;;;;;;4990060;28;20030;-56
2022/04/06 10:56:16;;;;;;;10.73;6.93;;;8.90;99.90;;;;;;4988071;28;20045;-53
2022/04/06 10:59:09;;;;;;;11.68;7.68;;;8.90;99.90;;;;;;4990606;28;20022;-53
2022/04/06 11:01:35;;;;;;;9.23;8.27;;;9.00;99.90;;;;;;4984083;28;20101;-54
2022/04/06 11:04:20;;;;;;;8.75;7.90;;;9.00;99.90;;;;;;4990114;28;20437;-52
2022/04/06 11:06:59;;;;;;;11.52;8.50;;;8.90;99.90;;;;;;4990437;28;20081;-58
2022/04/06 11:12:27;;;;;;;10.40;8.80;;;9.00;99.90;;;;;;4990262;28;20029;-51
2022/04/06 11:14:58;;;;;;;10.63;8.82;;;9.00;99.90;;;;;;4990264;28;20022;-55
2022/04/06 11:17:42;;;;;;;11.68;8.90;;;9.10;99.90;;;;;;4989847;28;20026;-56
2022/04/06 11:20:14;;;;;;;10.77;9.45;;;9.10;99.90;;;;;;4989457;28;20022;-52
2022/04/06 11:22:53;;;;;;;10.85;9.73;;;9.00;99.90;;;;;;4990421;28;20025;-55
2022/04/06 11:25:22;;;;;;;17.65;10.25;;;9.10;99.90;;;;;;4993294;28;20022;-56
2022/04/06 11:27:48;;;;;;;13.48;10.15;;;9.00;99.90;;;;;;4994471;28;20030;-57
2022/04/06 11:30:15;;;;;;;11.60;9.23;;;9.00;99.90;;;;;;4993853;28;20038;-54
2022/04/06 11:32:45;;;;;;;14.55;9.23;;;9.00;99.90;;;;;;4993662;28;20033;-51
2022/04/06 11:35:12;;;;;;;13.35;10.20;;;9.00;99.90;;;;;;4993620;28;20121;-54
2022/04/06 11:37:41;;;;;;;11.30;8.48;;;9.00;99.90;;;;;;4993783;28;20089;-54
2022/04/06 11:40:08;;;;;;;15.23;8.90;;;9.00;99.90;;;;;;4992925;28;20022;-52
2022/04/06 11:42:33;;;;;;;11.10;9.35;;;9.00;99.90;;;;;;4993410;28;20030;-55
2022/04/06 11:44:59;;;;;;;10.75;9.65;;;9.00;99.90;;;;;;4994103;28;20447;-52
2022/04/06 11:47:32;;;;;;;12.77;10.18;;;9.00;99.90;;;;;;4993478;28;20030;-56
2022/04/06 11:49:59;;;;;;;13.15;10.45;;;9.10;99.90;;;;;;4993518;28;20034;-57
2022/04/06 11:52:25;;;;;;;13.55;9.57;;;9.10;99.90;;;;;;4993179;28;20493;-53
2022/04/06 11:54:56;;;;;;;11.75;9.25;;;9.10;99.90;;;;;;4993336;28;20037;-54
2022/04/06 11:57:48;;;;;;;12.50;9.65;;;9.20;99.90;;;;;;4993238;28;20034;-54
2022/04/06 12:00:16;;;;;;;13.05;9.50;;;9.20;99.90;;;;;;4992056;28;20134;-56
2022/04/06 12:02:51;;;;;;;10.95;9.10;;;9.20;99.90;;;;;;4993140;28;20091;-57
2022/04/06 12:05:18;;;;;;;11.88;9.48;;;9.20;99.90;;;;;;4990621;28;20085;-55
2022/04/06 12:07:45;;;;;;;13.55;9.63;;;9.20;99.90;;;;;;4993522;28;20397;-53
2022/04/06 12:10:11;;;;;;;14.88;10.60;;;9.30;99.90;;;;;;4993532;28;20022;-57
2022/04/06 12:12:38;;;;;;;17.45;11.18;;;9.30;99.90;;;;;;4993063;28;20527;-54
2022/04/06 12:15:08;;;;;;;11.73;10.18;;;9.30;99.90;;;;;;4993377;28;20030;-54
2022/04/06 12:17:34;;;;;;;12.13;9.27;;;9.30;99.90;;;;;;4996765;28;20019;-56
2022/04/06 12:20:19;;;;;;;17.25;10.88;;;9.30;99.90;;;;;;5000818;28;20030;-53
2022/04/06 12:22:45;;;;;;;14.82;10.27;;;9.30;99.90;;;;;;4992512;28;20029;-55
2022/04/06 12:25:31;;;;;;;12.85;9.45;;;9.30;99.90;;;;;;4993096;28;20030;-53
2022/04/06 12:28:34;;;;;;;13.20;9.52;;;9.30;99.90;;;;;;4992505;28;20022;-52
2022/04/06 12:31:02;;;;;;;14.70;10.55;;;9.20;99.90;;;;;;4992881;28;20038;-56
2022/04/06 12:33:49;;;;;;;17.98;11.43;;;9.20;99.90;;;;;;4992001;28;20490;-56
2022/04/06 12:36:22;;;;;;;17.92;11.27;;;9.20;99.90;;;;;;4991842;28;20120;-54
2022/04/06 12:39:01;;;;;;;16.15;10.85;;;9.20;99.90;;;;;;4993419;28;20031;-54
2022/04/06 12:41:32;;;;;;;13.38;10.10;;;9.20;99.90;;;;;;4992613;28;20081;-54
2022/04/06 12:43:58;;;;;;;14.65;9.95;;;9.20;99.90;;;;;;4992698;28;20397;-54
2022/04/06 12:46:44;;;;;;;13.25;9.88;;;9.30;99.90;;;;;;4992486;28;20401;-57
2022/04/06 12:49:19;;;;;;;14.32;10.43;;;9.30;99.90;;;;;;4992561;28;20035;-54
2022/04/06 12:51:45;;;;;;;15.35;11.40;;;9.30;99.90;;;;;;4992588;28;20058;-53
2022/04/06 12:54:12;;;;;;;15.65;10.18;;;9.40;99.90;;;;;;4992063;28;20441;-55
2022/04/06 12:56:37;;;;;;;12.00;9.05;;;9.40;99.90;;;;;;4992139;28;20070;-52
2022/04/06 12:59:10;;;;;;;10.35;9.13;;;9.40;99.90;;;;;;4992452;28;20054;-54